createdAt,value
2022-11-26T00:04:44.913Z,6.10
2022-11-26T00:09:49.296Z,6.20
2022-11-26T00:14:52.570Z,6.00
2022-11-26T00:19:55.379Z,6.10
2022-11-26T00:24:58.534Z,6.20
2022-11-26T00:30:01.327Z,6.20
2022-11-26T00:35:04.223Z,6.20
2022-11-26T00:40:07.995Z,6.20
2022-11-26T00:45:31.286Z,6.30
2022-11-26T00:50:39.046Z,6.30
2022-11-26T00:55:58.062Z,6.20
2022-11-26T01:01:01.512Z,6.30
2022-11-26T01:11:56.782Z,6.10
2022-11-26T01:17:25.821Z,6.10
2022-11-26T01:22:54.189Z,6.10
2022-11-26T01:28:04.371Z,6.10
2022-11-26T01:33:28.331Z,5.90
2022-11-26T01:38:40.599Z,6.00
2022-11-26T01:44:02.418Z,5.90
2022-11-26T01:49:38.609Z,6.00
2022-11-26T01:54:44.309Z,6.10
2022-11-26T01:59:53.062Z,6.10
2022-11-26T02:05:30.414Z,6.10
2022-11-26T02:10:41.258Z,6.00
2022-11-26T02:16:24.418Z,6.00
2022-11-26T02:21:28.466Z,6.10
2022-11-26T02:27:20.155Z,6.20
2022-11-26T02:38:13.825Z,5.90
2022-11-26T02:43:33.768Z,6.00
2022-11-26T02:48:55.696Z,6.10
2022-11-26T02:54:08.414Z,6.00
2022-11-26T02:59:17.722Z,6.10
2022-11-26T03:04:44.831Z,6.10
2022-11-26T03:09:58.580Z,6.10
2022-11-26T03:15:04.020Z,6.20
2022-11-26T03:20:08.335Z,6.30
2022-11-26T03:25:11.742Z,6.20
2022-11-26T03:30:14.740Z,6.20
2022-11-26T03:35:17.639Z,6.20
2022-11-26T03:40:20.796Z,6.10
2022-11-26T03:45:26.008Z,6.30
2022-11-26T03:50:29.067Z,6.20
2022-11-26T03:55:31.833Z,6.20
2022-11-26T04:00:34.620Z,6.00
2022-11-26T04:05:48.870Z,6.10
2022-11-26T04:10:57.632Z,6.00
2022-11-26T04:16:22.449Z,6.10
2022-11-26T04:21:25.883Z,6.20
2022-11-26T04:26:42.917Z,6.10
2022-11-26T04:32:10.777Z,6.10
2022-11-26T04:37:25.059Z,6.00
2022-11-26T04:42:42.846Z,6.00
2022-11-26T04:48:06.283Z,6.10
2022-11-26T04:53:32.651Z,6.00
2022-11-26T04:58:39.257Z,6.20
2022-11-26T05:03:59.922Z,6.00
2022-11-26T05:09:21.858Z,6.10
2022-11-26T05:14:42.500Z,6.20
2022-11-26T05:19:52.587Z,6.30
2022-11-26T05:25:00.326Z,6.30
2022-11-26T05:30:04.182Z,6.10
2022-11-26T05:35:07.259Z,6.20
2022-11-26T05:40:13.582Z,6.10
2022-11-26T05:45:16.702Z,6.20
2022-11-26T05:50:19.539Z,6.10
2022-11-26T05:55:34.794Z,6.10
2022-11-26T06:00:37.660Z,6.10
2022-11-26T06:06:18.719Z,6.20
2022-11-26T06:11:40.624Z,6.20
2022-11-26T06:16:57.331Z,6.10
2022-11-26T06:22:16.395Z,6.10
2022-11-26T06:27:56.446Z,6.00
2022-11-26T06:33:08.291Z,6.00
2022-11-26T06:38:25.644Z,6.00
2022-11-26T06:43:36.757Z,6.10
2022-11-26T06:48:57.459Z,6.10
2022-11-26T06:54:08.180Z,6.00
2022-11-26T06:59:18.624Z,5.90
2022-11-26T07:04:42.288Z,6.10
2022-11-26T07:09:46.315Z,6.10
2022-11-26T07:14:49.573Z,6.20
2022-11-26T07:19:52.589Z,6.10
2022-11-26T07:24:55.777Z,6.20
2022-11-26T07:30:01.454Z,6.10
2022-11-26T07:35:04.742Z,6.10
2022-11-26T07:40:11.111Z,6.10
2022-11-26T07:45:13.850Z,6.00
2022-11-26T07:50:16.716Z,6.10
2022-11-26T07:55:19.489Z,6.10
2022-11-26T08:00:34.694Z,6.20
2022-11-26T08:11:23.024Z,6.10
2022-11-26T08:16:28.780Z,6.10
2022-11-26T08:21:59.666Z,6.10
2022-11-26T08:27:26.088Z,6.10
2022-11-26T08:33:17.577Z,6.20
2022-11-26T08:38:27.143Z,6.40
2022-11-26T08:44:06.181Z,6.20
2022-11-26T08:49:23.565Z,6.60
2022-11-26T08:54:27.222Z,6.50
2022-11-26T08:59:30.015Z,6.60
2022-11-26T09:04:50.956Z,6.70
2022-11-26T09:09:58.262Z,6.70
2022-11-26T09:15:01.065Z,6.70
2022-11-26T09:20:04.259Z,6.70
2022-11-26T09:25:07.498Z,6.90
2022-11-26T09:30:10.767Z,6.80
2022-11-26T09:35:13.581Z,6.80
2022-11-26T09:40:20.876Z,7.00
2022-11-26T09:45:45.388Z,7.30
2022-11-26T09:51:27.868Z,7.30
2022-11-26T09:56:52.624Z,7.30
2022-11-26T10:02:22.076Z,7.40
2022-11-26T10:07:36.445Z,7.60
2022-11-26T10:13:23.344Z,7.70
2022-11-26T10:19:16.431Z,7.80
2022-11-26T10:24:32.121Z,8.10
2022-11-26T10:29:39.538Z,8.00
2022-11-26T10:34:51.150Z,8.00
2022-11-26T10:40:17.812Z,8.10
2022-11-26T10:45:24.108Z,8.20
2022-11-26T10:56:22.664Z,8.50
2022-11-26T11:01:56.180Z,8.40
2022-11-26T11:07:44.229Z,8.40
2022-11-26T11:13:16.743Z,8.50
2022-11-26T11:18:36.916Z,8.30
2022-11-26T11:29:12.154Z,8.40
2022-11-26T11:34:39.239Z,8.60
2022-11-26T11:39:42.686Z,8.90
2022-11-26T11:44:49.403Z,8.70
2022-11-26T11:50:21.218Z,8.70
2022-11-26T11:55:42.265Z,8.50
2022-11-26T12:00:57.236Z,7.90
2022-11-26T12:06:37.496Z,7.70
2022-11-26T12:12:10.623Z,8.10
2022-11-26T12:18:04.350Z,8.10
2022-11-26T12:23:35.795Z,8.20
2022-11-26T12:29:11.528Z,8.30
2022-11-26T12:34:39.829Z,8.40
2022-11-26T12:39:53.795Z,8.30
2022-11-26T12:45:07.279Z,8.50
2022-11-26T12:50:35.270Z,8.60
2022-11-26T12:56:09.003Z,8.60
2022-11-26T13:01:28.212Z,8.50
2022-11-26T13:06:50.891Z,8.40
2022-11-26T13:12:26.789Z,8.50
2022-11-26T13:18:03.470Z,8.60
2022-11-26T13:23:34.073Z,8.20
2022-11-26T13:29:24.232Z,8.10
2022-11-26T13:34:39.952Z,8.10
2022-11-26T13:40:03.665Z,8.30
2022-11-26T13:45:18.391Z,8.70
2022-11-26T13:50:38.083Z,8.50
2022-11-26T13:56:23.027Z,8.50
2022-11-26T14:01:53.249Z,8.40
2022-11-26T14:07:28.680Z,8.50
2022-11-26T14:13:02.844Z,8.50
2022-11-26T14:18:08.652Z,8.20
2022-11-26T14:23:41.426Z,8.20
2022-11-26T14:29:06.136Z,8.00
2022-11-26T14:34:26.325Z,8.00
2022-11-26T14:39:36.279Z,7.80
2022-11-26T14:44:39.451Z,7.90
2022-11-26T14:50:01.161Z,7.90
2022-11-26T14:55:15.838Z,7.80
2022-11-26T15:00:24.935Z,7.70
2022-11-26T15:05:50.887Z,7.50
2022-11-26T15:11:25.430Z,7.40
2022-11-26T15:22:47.855Z,7.00
2022-11-26T15:28:11.631Z,6.80
2022-11-26T15:33:36.573Z,6.60
2022-11-26T15:39:28.318Z,6.40
2022-11-26T15:44:40.547Z,6.20
2022-11-26T15:49:52.213Z,6.00
2022-11-26T15:55:12.449Z,5.90
2022-11-26T16:00:23.607Z,5.70
2022-11-26T16:05:54.057Z,5.50
2022-11-26T16:11:29.413Z,5.30
2022-11-26T16:22:30.998Z,5.10
2022-11-26T16:27:51.354Z,4.90
2022-11-26T16:33:10.917Z,4.90
2022-11-26T16:38:40.631Z,4.80
2022-11-26T16:44:08.432Z,4.80
2022-11-26T16:49:21.023Z,4.80
2022-11-26T16:54:32.327Z,4.80
2022-11-26T16:59:43.584Z,4.80
2022-11-26T17:10:37.809Z,4.80
2022-11-26T17:15:42.182Z,4.80
2022-11-26T17:20:47.367Z,4.80
2022-11-26T17:26:19.526Z,4.80
2022-11-26T17:31:42.746Z,5.00
2022-11-26T17:37:04.183Z,5.10
2022-11-26T17:42:33.617Z,5.20
2022-11-26T17:48:08.588Z,5.30
2022-11-26T17:53:27.430Z,5.40
2022-11-26T17:58:42.719Z,5.40
2022-11-26T18:04:05.637Z,5.50
2022-11-26T18:09:17.710Z,5.50
2022-11-26T18:14:26.032Z,5.50
2022-11-26T18:19:30.104Z,5.50
2022-11-26T18:24:37.204Z,5.50
2022-11-26T18:29:42.605Z,5.30
2022-11-26T18:34:45.606Z,5.20
2022-11-26T18:39:48.403Z,5.10
2022-11-26T18:44:51.190Z,4.90
2022-11-26T18:49:54.047Z,4.90
2022-11-26T18:54:56.792Z,4.90
2022-11-26T18:59:59.590Z,4.80
2022-11-26T19:05:17.276Z,4.70
2022-11-26T19:10:22.411Z,4.40
2022-11-26T19:15:25.291Z,4.50
2022-11-26T19:20:31.409Z,4.40
2022-11-26T19:25:34.392Z,4.30
2022-11-26T19:30:37.264Z,4.10
2022-11-26T19:35:40.498Z,4.00
2022-11-26T19:40:43.266Z,3.90
2022-11-26T19:45:46.072Z,3.70
2022-11-26T19:50:57.748Z,3.60
2022-11-26T19:56:24.197Z,3.40
2022-11-26T20:01:30.856Z,3.20
2022-11-26T20:06:54.958Z,3.20
2022-11-26T20:17:48.325Z,3.10
2022-11-26T20:22:51.823Z,3.10
2022-11-26T20:28:06.238Z,3.00
2022-11-26T20:33:25.974Z,3.00
2022-11-26T20:38:36.789Z,2.90
2022-11-26T20:43:39.875Z,2.90
2022-11-26T20:48:57.936Z,2.90
2022-11-26T20:54:10.281Z,2.90
2022-11-26T20:59:19.923Z,2.90
2022-11-26T21:04:51.410Z,2.90
2022-11-26T21:09:54.549Z,2.90
2022-11-26T21:14:57.326Z,2.90
2022-11-26T21:20:00.046Z,3.00
2022-11-26T21:25:02.835Z,3.00
2022-11-26T21:30:06.318Z,3.10
2022-11-26T21:35:10.551Z,3.20
2022-11-26T21:40:13.748Z,3.30
2022-11-26T21:45:16.583Z,3.30
2022-11-26T21:50:20.220Z,3.40
2022-11-26T21:55:23.317Z,3.50
2022-11-26T22:00:29.391Z,3.50
2022-11-26T22:05:51.450Z,3.60
2022-11-26T22:11:08.520Z,3.70
2022-11-26T22:16:30.324Z,3.70
2022-11-26T22:21:58.079Z,3.80
2022-11-26T22:27:15.936Z,3.80
2022-11-26T22:32:49.887Z,3.80
2022-11-26T22:38:03.119Z,3.80
2022-11-26T22:43:12.281Z,3.70
2022-11-26T22:48:28.359Z,3.70
2022-11-26T22:53:37.114Z,3.60
2022-11-26T22:58:49.938Z,3.40
2022-11-26T23:04:07.273Z,3.30
2022-11-26T23:09:41.252Z,3.20
2022-11-26T23:14:50.200Z,3.10
2022-11-26T23:19:52.990Z,3.10
2022-11-26T23:24:55.812Z,3.00
2022-11-26T23:30:00.044Z,2.90
2022-11-26T23:35:03.275Z,2.90
2022-11-26T23:40:08.764Z,2.80
2022-11-26T23:45:11.912Z,2.80
2022-11-26T23:50:15.436Z,2.70
2022-11-26T23:55:18.287Z,2.70
